sensor_id;sensor_type;location;lat;lon;timestamp;temperature;humidity
51908;DHT22;39320;53.214;6.556;2023-05-10T00:02:10;14.50;99.90
51908;DHT22;39320;53.214;6.556;2023-05-10T00:04:35;14.50;99.90
51908;DHT22;39320;53.214;6.556;2023-05-10T00:07:01;14.40;99.90
51908;DHT22;39320;53.214;6.556;2023-05-10T00:09:27;14.40;99.90
51908;DHT22;39320;53.214;6.556;2023-05-10T00:11:53;14.40;99.90
51908;DHT22;39320;53.214;6.556;2023-05-10T00:14:19;14.40;99.90
51908;DHT22;39320;53.214;6.556;2023-05-10T00:16:44;14.40;99.90
51908;DHT22;39320;53.214;6.556;2023-05-10T00:19:10;14.40;99.90
51908;DHT22;39320;53.214;6.556;2023-05-10T00:21:36;14.40;99.90
51908;DHT22;39320;53.214;6.556;2023-05-10T00:24:02;14.40;99.90
51908;DHT22;39320;53.214;6.556;2023-05-10T00:26:27;14.40;99.90
51908;DHT22;39320;53.214;6.556;2023-05-10T00:28:53;14.40;99.90
51908;DHT22;39320;53.214;6.556;2023-05-10T00:31:19;14.40;99.90
51908;DHT22;39320;53.214;6.556;2023-05-10T00:33:44;14.40;99.90
51908;DHT22;39320;53.214;6.556;2023-05-10T00:36:10;14.40;99.90
51908;DHT22;39320;53.214;6.556;2023-05-10T00:38:36;14.30;99.90
51908;DHT22;39320;53.214;6.556;2023-05-10T00:41:02;14.30;99.90
51908;DHT22;39320;53.214;6.556;2023-05-10T00:43:28;14.20;99.90
51908;DHT22;39320;53.214;6.556;2023-05-10T00:45:54;14.20;99.90
51908;DHT22;39320;53.214;6.556;2023-05-10T00:48:20;14.20;99.90
51908;DHT22;39320;53.214;6.556;2023-05-10T00:50:46;14.20;99.90
51908;DHT22;39320;53.214;6.556;2023-05-10T00:53:12;14.20;99.90
51908;DHT22;39320;53.214;6.556;2023-05-10T00:55:38;14.20;99.90
51908;DHT22;39320;53.214;6.556;2023-05-10T00:58:04;14.10;99.90
51908;DHT22;39320;53.214;6.556;2023-05-10T01:00:30;14.10;99.90
51908;DHT22;39320;53.214;6.556;2023-05-10T01:02:58;14.00;99.90
51908;DHT22;39320;53.214;6.556;2023-05-10T01:05:23;14.00;99.90
51908;DHT22;39320;53.214;6.556;2023-05-10T01:07:50;14.00;99.90
51908;DHT22;39320;53.214;6.556;2023-05-10T01:10:16;13.90;99.90
51908;DHT22;39320;53.214;6.556;2023-05-10T01:12:43;13.90;99.90
51908;DHT22;39320;53.214;6.556;2023-05-10T01:15:11;14.00;99.90
51908;DHT22;39320;53.214;6.556;2023-05-10T01:17:39;13.90;99.90
51908;DHT22;39320;53.214;6.556;2023-05-10T01:20:06;13.90;99.90
51908;DHT22;39320;53.214;6.556;2023-05-10T01:25:49;13.90;99.90
51908;DHT22;39320;53.214;6.556;2023-05-10T01:33:46;13.90;99.90
51908;DHT22;39320;53.214;6.556;2023-05-10T01:41:41;13.90;99.90
51908;DHT22;39320;53.214;6.556;2023-05-10T01:44:29;13.90;99.90
51908;DHT22;39320;53.214;6.556;2023-05-10T01:46:58;13.90;99.90
51908;DHT22;39320;53.214;6.556;2023-05-10T01:49:30;13.90;99.90
51908;DHT22;39320;53.214;6.556;2023-05-10T01:52:04;13.90;99.90
51908;DHT22;39320;53.214;6.556;2023-05-10T01:54:33;13.80;99.90
51908;DHT22;39320;53.214;6.556;2023-05-10T01:57:03;13.80;99.90
51908;DHT22;39320;53.214;6.556;2023-05-10T01:59:34;13.80;99.90
51908;DHT22;39320;53.214;6.556;2023-05-10T02:02:07;13.80;99.90
51908;DHT22;39320;53.214;6.556;2023-05-10T02:04:38;13.80;99.90
51908;DHT22;39320;53.214;6.556;2023-05-10T02:07:06;13.80;99.90
51908;DHT22;39320;53.214;6.556;2023-05-10T02:09:33;13.70;99.90
51908;DHT22;39320;53.214;6.556;2023-05-10T02:12:01;13.70;99.90
51908;DHT22;39320;53.214;6.556;2023-05-10T02:14:30;13.80;99.90
51908;DHT22;39320;53.214;6.556;2023-05-10T02:16:58;13.80;99.90
51908;DHT22;39320;53.214;6.556;2023-05-10T02:19:26;13.80;99.90
51908;DHT22;39320;53.214;6.556;2023-05-10T02:21:55;13.80;99.90
51908;DHT22;39320;53.214;6.556;2023-05-10T02:24:21;13.80;99.90
51908;DHT22;39320;53.214;6.556;2023-05-10T02:26:49;13.70;99.90
51908;DHT22;39320;53.214;6.556;2023-05-10T02:29:15;13.70;99.90
51908;DHT22;39320;53.214;6.556;2023-05-10T02:31:42;13.70;99.90
51908;DHT22;39320;53.214;6.556;2023-05-10T02:34:10;13.80;99.90
51908;DHT22;39320;53.214;6.556;2023-05-10T02:36:38;13.80;99.90
51908;DHT22;39320;53.214;6.556;2023-05-10T02:39:04;13.70;99.90
51908;DHT22;39320;53.214;6.556;2023-05-10T02:41:35;13.70;99.90
51908;DHT22;39320;53.214;6.556;2023-05-10T02:44:02;13.70;99.90
51908;DHT22;39320;53.214;6.556;2023-05-10T02:46:30;13.70;99.90
51908;DHT22;39320;53.214;6.556;2023-05-10T02:48:56;13.70;99.90
51908;DHT22;39320;53.214;6.556;2023-05-10T02:51:25;13.70;99.90
51908;DHT22;39320;53.214;6.556;2023-05-10T02:53:54;13.80;99.90
51908;DHT22;39320;53.214;6.556;2023-05-10T02:56:25;13.80;99.90
51908;DHT22;39320;53.214;6.556;2023-05-10T02:58:52;13.70;99.90
51908;DHT22;39320;53.214;6.556;2023-05-10T03:01:17;13.70;99.90
51908;DHT22;39320;53.214;6.556;2023-05-10T03:03:43;13.60;99.90
51908;DHT22;39320;53.214;6.556;2023-05-10T03:06:09;13.50;99.90
51908;DHT22;39320;53.214;6.556;2023-05-10T03:08:35;13.50;99.90
51908;DHT22;39320;53.214;6.556;2023-05-10T03:11:28;13.50;99.90
51908;DHT22;39320;53.214;6.556;2023-05-10T03:16:45;13.50;99.90
51908;DHT22;39320;53.214;6.556;2023-05-10T03:19:24;13.50;99.90
51908;DHT22;39320;53.214;6.556;2023-05-10T03:21:53;13.60;99.90
51908;DHT22;39320;53.214;6.556;2023-05-10T03:24:21;13.60;99.90
51908;DHT22;39320;53.214;6.556;2023-05-10T03:26:49;13.60;99.90
51908;DHT22;39320;53.214;6.556;2023-05-10T03:29:16;13.70;99.90
51908;DHT22;39320;53.214;6.556;2023-05-10T03:31:42;13.70;99.90
51908;DHT22;39320;53.214;6.556;2023-05-10T03:34:08;13.70;99.90
51908;DHT22;39320;53.214;6.556;2023-05-10T03:36:34;13.80;99.90
51908;DHT22;39320;53.214;6.556;2023-05-10T03:39:00;13.70;99.90
51908;DHT22;39320;53.214;6.556;2023-05-10T03:41:26;13.70;99.90
51908;DHT22;39320;53.214;6.556;2023-05-10T03:43:52;13.70;99.90
51908;DHT22;39320;53.214;6.556;2023-05-10T03:46:17;13.70;99.90
51908;DHT22;39320;53.214;6.556;2023-05-10T03:48:43;13.80;99.90
51908;DHT22;39320;53.214;6.556;2023-05-10T03:51:09;13.70;99.90
51908;DHT22;39320;53.214;6.556;2023-05-10T03:53:35;13.70;99.90
51908;DHT22;39320;53.214;6.556;2023-05-10T03:56:01;13.70;99.90
51908;DHT22;39320;53.214;6.556;2023-05-10T03:58:26;13.70;99.90
51908;DHT22;39320;53.214;6.556;2023-05-10T04:00:52;13.70;99.90
51908;DHT22;39320;53.214;6.556;2023-05-10T04:03:18;13.70;99.90
51908;DHT22;39320;53.214;6.556;2023-05-10T04:05:44;13.60;99.90
51908;DHT22;39320;53.214;6.556;2023-05-10T04:08:09;13.70;99.90
51908;DHT22;39320;53.214;6.556;2023-05-10T04:10:35;13.70;99.90
51908;DHT22;39320;53.214;6.556;2023-05-10T04:13:01;13.60;99.90
51908;DHT22;39320;53.214;6.556;2023-05-10T04:15:27;13.70;99.90
51908;DHT22;39320;53.214;6.556;2023-05-10T04:17:52;13.70;99.90
51908;DHT22;39320;53.214;6.556;2023-05-10T04:20:19;13.70;99.90
51908;DHT22;39320;53.214;6.556;2023-05-10T04:22:44;13.70;99.90
51908;DHT22;39320;53.214;6.556;2023-05-10T04:25:10;13.70;99.90
51908;DHT22;39320;53.214;6.556;2023-05-10T04:27:36;13.70;99.90
51908;DHT22;39320;53.214;6.556;2023-05-10T04:30:02;13.70;99.90
51908;DHT22;39320;53.214;6.556;2023-05-10T04:32:28;13.70;99.90
51908;DHT22;39320;53.214;6.556;2023-05-10T04:34:54;13.80;99.90
51908;DHT22;39320;53.214;6.556;2023-05-10T04:37:20;13.80;99.90
51908;DHT22;39320;53.214;6.556;2023-05-10T04:39:47;13.80;99.90
51908;DHT22;39320;53.214;6.556;2023-05-10T04:42:12;13.80;99.90
51908;DHT22;39320;53.214;6.556;2023-05-10T04:44:40;13.80;99.90
51908;DHT22;39320;53.214;6.556;2023-05-10T04:47:06;13.80;99.90
51908;DHT22;39320;53.214;6.556;2023-05-10T04:49:32;13.70;99.90
51908;DHT22;39320;53.214;6.556;2023-05-10T04:51:57;13.70;99.90
51908;DHT22;39320;53.214;6.556;2023-05-10T04:54:23;13.70;99.90
51908;DHT22;39320;53.214;6.556;2023-05-10T04:56:49;13.60;99.90
51908;DHT22;39320;53.214;6.556;2023-05-10T04:59:15;13.70;99.90
51908;DHT22;39320;53.214;6.556;2023-05-10T05:01:41;13.70;99.90
51908;DHT22;39320;53.214;6.556;2023-05-10T05:04:06;13.60;99.90
51908;DHT22;39320;53.214;6.556;2023-05-10T05:06:32;13.60;99.90
51908;DHT22;39320;53.214;6.556;2023-05-10T05:08:58;13.60;99.90
51908;DHT22;39320;53.214;6.556;2023-05-10T05:11:24;13.60;99.90
51908;DHT22;39320;53.214;6.556;2023-05-10T05:13:51;13.60;99.90
51908;DHT22;39320;53.214;6.556;2023-05-10T05:16:16;13.60;99.90
51908;DHT22;39320;53.214;6.556;2023-05-10T05:18:42;13.60;99.90
51908;DHT22;39320;53.214;6.556;2023-05-10T05:21:18;13.50;99.90
51908;DHT22;39320;53.214;6.556;2023-05-10T05:23:44;13.60;99.90
51908;DHT22;39320;53.214;6.556;2023-05-10T05:26:10;13.50;99.90
51908;DHT22;39320;53.214;6.556;2023-05-10T05:28:36;13.60;99.90
51908;DHT22;39320;53.214;6.556;2023-05-10T05:31:06;13.60;99.90
51908;DHT22;39320;53.214;6.556;2023-05-10T05:33:36;13.60;99.90
51908;DHT22;39320;53.214;6.556;2023-05-10T05:36:02;13.60;99.90
51908;DHT22;39320;53.214;6.556;2023-05-10T05:38:28;13.60;99.90
51908;DHT22;39320;53.214;6.556;2023-05-10T05:40:54;13.50;99.90
51908;DHT22;39320;53.214;6.556;2023-05-10T05:43:20;13.60;99.90
51908;DHT22;39320;53.214;6.556;2023-05-10T05:45:46;13.60;99.90
51908;DHT22;39320;53.214;6.556;2023-05-10T05:48:12;13.60;99.90
51908;DHT22;39320;53.214;6.556;2023-05-10T05:50:38;13.60;99.90
51908;DHT22;39320;53.214;6.556;2023-05-10T05:53:04;13.60;99.90
51908;DHT22;39320;53.214;6.556;2023-05-10T05:55:29;13.60;99.90
51908;DHT22;39320;53.214;6.556;2023-05-10T05:57:57;13.70;99.90
51908;DHT22;39320;53.214;6.556;2023-05-10T06:00:23;13.60;99.90
51908;DHT22;39320;53.214;6.556;2023-05-10T06:02:49;13.70;99.90
51908;DHT22;39320;53.214;6.556;2023-05-10T06:05:15;13.70;99.90
51908;DHT22;39320;53.214;6.556;2023-05-10T06:07:41;13.70;99.90
51908;DHT22;39320;53.214;6.556;2023-05-10T06:10:10;13.70;99.90
51908;DHT22;39320;53.214;6.556;2023-05-10T06:12:35;13.60;99.90
51908;DHT22;39320;53.214;6.556;2023-05-10T06:15:02;13.60;99.90
51908;DHT22;39320;53.214;6.556;2023-05-10T06:17:28;13.60;99.90
51908;DHT22;39320;53.214;6.556;2023-05-10T06:19:54;13.60;99.90
51908;DHT22;39320;53.214;6.556;2023-05-10T06:22:20;13.60;99.90
51908;DHT22;39320;53.214;6.556;2023-05-10T06:24:47;13.60;99.90
51908;DHT22;39320;53.214;6.556;2023-05-10T06:27:13;13.50;99.90
51908;DHT22;39320;53.214;6.556;2023-05-10T06:29:38;13.60;99.90
51908;DHT22;39320;53.214;6.556;2023-05-10T06:32:04;13.60;99.90
51908;DHT22;39320;53.214;6.556;2023-05-10T06:34:30;13.50;99.90
51908;DHT22;39320;53.214;6.556;2023-05-10T06:36:57;13.50;99.90
51908;DHT22;39320;53.214;6.556;2023-05-10T06:39:22;13.50;99.90
51908;DHT22;39320;53.214;6.556;2023-05-10T06:41:48;13.40;99.90
51908;DHT22;39320;53.214;6.556;2023-05-10T06:44:14;13.40;99.90
51908;DHT22;39320;53.214;6.556;2023-05-10T06:46:40;13.40;99.90
51908;DHT22;39320;53.214;6.556;2023-05-10T06:49:07;13.00;99.90
51908;DHT22;39320;53.214;6.556;2023-05-10T06:51:33;13.40;99.90
51908;DHT22;39320;53.214;6.556;2023-05-10T06:53:59;13.40;99.90
51908;DHT22;39320;53.214;6.556;2023-05-10T06:56:24;13.30;99.90
51908;DHT22;39320;53.214;6.556;2023-05-10T06:58:50;13.40;99.90
51908;DHT22;39320;53.214;6.556;2023-05-10T07:01:16;13.40;99.90
51908;DHT22;39320;53.214;6.556;2023-05-10T07:03:42;13.40;99.90
51908;DHT22;39320;53.214;6.556;2023-05-10T07:06:07;13.40;99.90
51908;DHT22;39320;53.214;6.556;2023-05-10T07:08:34;13.40;99.90
51908;DHT22;39320;53.214;6.556;2023-05-10T07:11:04;13.40;99.90
51908;DHT22;39320;53.214;6.556;2023-05-10T07:13:31;13.40;99.90
51908;DHT22;39320;53.214;6.556;2023-05-10T07:15:57;13.50;99.90
51908;DHT22;39320;53.214;6.556;2023-05-10T07:18:24;13.40;99.90
51908;DHT22;39320;53.214;6.556;2023-05-10T07:20:50;13.50;99.90
51908;DHT22;39320;53.214;6.556;2023-05-10T07:23:15;13.50;99.90
51908;DHT22;39320;53.214;6.556;2023-05-10T07:25:48;13.50;99.90
51908;DHT22;39320;53.214;6.556;2023-05-10T07:28:15;13.50;99.90
51908;DHT22;39320;53.214;6.556;2023-05-10T07:30:42;13.40;99.90
51908;DHT22;39320;53.214;6.556;2023-05-10T07:33:09;13.40;99.90
51908;DHT22;39320;53.214;6.556;2023-05-10T07:35:36;13.50;99.90
51908;DHT22;39320;53.214;6.556;2023-05-10T07:38:02;13.40;99.90
51908;DHT22;39320;53.214;6.556;2023-05-10T07:40:28;13.50;99.90
51908;DHT22;39320;53.214;6.556;2023-05-10T07:42:54;13.50;99.90
51908;DHT22;39320;53.214;6.556;2023-05-10T07:45:20;13.50;99.90
51908;DHT22;39320;53.214;6.556;2023-05-10T07:47:46;13.50;99.90
51908;DHT22;39320;53.214;6.556;2023-05-10T07:50:12;13.50;99.90
51908;DHT22;39320;53.214;6.556;2023-05-10T07:52:38;13.50;99.90
51908;DHT22;39320;53.214;6.556;2023-05-10T07:55:04;13.50;99.90
51908;DHT22;39320;53.214;6.556;2023-05-10T07:57:30;13.60;99.90
51908;DHT22;39320;53.214;6.556;2023-05-10T07:59:56;13.50;99.90
51908;DHT22;39320;53.214;6.556;2023-05-10T08:02:21;13.60;99.90
51908;DHT22;39320;53.214;6.556;2023-05-10T08:04:47;13.60;99.90
51908;DHT22;39320;53.214;6.556;2023-05-10T08:07:13;13.60;99.90
51908;DHT22;39320;53.214;6.556;2023-05-10T08:09:39;13.60;99.90
51908;DHT22;39320;53.214;6.556;2023-05-10T08:12:05;13.60;99.90
51908;DHT22;39320;53.214;6.556;2023-05-10T08:14:31;13.50;99.90
51908;DHT22;39320;53.214;6.556;2023-05-10T08:16:57;13.50;99.90
51908;DHT22;39320;53.214;6.556;2023-05-10T08:19:23;13.50;99.90
51908;DHT22;39320;53.214;6.556;2023-05-10T08:21:49;13.50;99.90
51908;DHT22;39320;53.214;6.556;2023-05-10T08:24:15;13.50;99.90
51908;DHT22;39320;53.214;6.556;2023-05-10T08:26:41;13.50;99.90
51908;DHT22;39320;53.214;6.556;2023-05-10T08:29:06;13.40;99.90
51908;DHT22;39320;53.214;6.556;2023-05-10T08:31:32;13.40;99.90
51908;DHT22;39320;53.214;6.556;2023-05-10T08:33:58;13.40;99.90
51908;DHT22;39320;53.214;6.556;2023-05-10T08:36:26;13.50;99.90
51908;DHT22;39320;53.214;6.556;2023-05-10T08:38:51;13.50;99.90
51908;DHT22;39320;53.214;6.556;2023-05-10T08:41:19;13.50;99.90
51908;DHT22;39320;53.214;6.556;2023-05-10T08:43:46;13.50;99.90
51908;DHT22;39320;53.214;6.556;2023-05-10T08:46:17;13.50;99.90
51908;DHT22;39320;53.214;6.556;2023-05-10T08:48:47;13.50;99.90
51908;DHT22;39320;53.214;6.556;2023-05-10T08:51:15;13.50;99.90
51908;DHT22;39320;53.214;6.556;2023-05-10T08:53:43;13.60;99.90
51908;DHT22;39320;53.214;6.556;2023-05-10T08:56:09;13.60;99.90
51908;DHT22;39320;53.214;6.556;2023-05-10T08:58:36;13.60;99.90
51908;DHT22;39320;53.214;6.556;2023-05-10T09:01:03;13.60;99.90
51908;DHT22;39320;53.214;6.556;2023-05-10T09:03:29;13.60;99.90
51908;DHT22;39320;53.214;6.556;2023-05-10T09:05:55;13.60;99.90
51908;DHT22;39320;53.214;6.556;2023-05-10T09:08:24;13.60;99.90
51908;DHT22;39320;53.214;6.556;2023-05-10T09:10:56;13.60;99.90
51908;DHT22;39320;53.214;6.556;2023-05-10T09:13:23;13.60;99.90
51908;DHT22;39320;53.214;6.556;2023-05-10T09:15:52;13.60;99.90
51908;DHT22;39320;53.214;6.556;2023-05-10T09:18:18;13.70;99.90
51908;DHT22;39320;53.214;6.556;2023-05-10T09:20:44;13.60;99.90
51908;DHT22;39320;53.214;6.556;2023-05-10T09:23:10;13.60;99.90
51908;DHT22;39320;53.214;6.556;2023-05-10T09:25:36;13.60;99.90
51908;DHT22;39320;53.214;6.556;2023-05-10T09:28:06;13.60;99.90
51908;DHT22;39320;53.214;6.556;2023-05-10T09:30:32;13.60;99.90
51908;DHT22;39320;53.214;6.556;2023-05-10T09:32:59;13.60;99.90
51908;DHT22;39320;53.214;6.556;2023-05-10T09:35:27;13.60;99.90
51908;DHT22;39320;53.214;6.556;2023-05-10T09:37:55;13.60;99.90
51908;DHT22;39320;53.214;6.556;2023-05-10T09:40:23;13.60;99.90
51908;DHT22;39320;53.214;6.556;2023-05-10T09:42:56;13.70;99.90
51908;DHT22;39320;53.214;6.556;2023-05-10T09:45:23;13.70;99.90
51908;DHT22;39320;53.214;6.556;2023-05-10T09:47:49;13.80;99.90
51908;DHT22;39320;53.214;6.556;2023-05-10T09:50:15;13.80;99.90
51908;DHT22;39320;53.214;6.556;2023-05-10T09:52:50;13.90;99.90
51908;DHT22;39320;53.214;6.556;2023-05-10T09:55:24;13.90;99.90
51908;DHT22;39320;53.214;6.556;2023-05-10T09:57:58;13.90;99.90
51908;DHT22;39320;53.214;6.556;2023-05-10T10:00:24;13.90;99.90
51908;DHT22;39320;53.214;6.556;2023-05-10T10:02:58;13.90;99.90
51908;DHT22;39320;53.214;6.556;2023-05-10T10:05:35;13.90;99.90
51908;DHT22;39320;53.214;6.556;2023-05-10T10:08:03;13.90;99.90
51908;DHT22;39320;53.214;6.556;2023-05-10T10:10:31;13.90;99.90
51908;DHT22;39320;53.214;6.556;2023-05-10T10:12:57;13.90;99.90
51908;DHT22;39320;53.214;6.556;2023-05-10T10:15:24;14.00;99.90
51908;DHT22;39320;53.214;6.556;2023-05-10T10:17:51;14.00;99.90
51908;DHT22;39320;53.214;6.556;2023-05-10T10:20:18;14.10;99.90
51908;DHT22;39320;53.214;6.556;2023-05-10T10:22:44;14.10;99.90
51908;DHT22;39320;53.214;6.556;2023-05-10T10:25:15;14.20;99.90
51908;DHT22;39320;53.214;6.556;2023-05-10T10:30:43;14.10;99.90
51908;DHT22;39320;53.214;6.556;2023-05-10T10:36:02;14.20;99.90
51908;DHT22;39320;53.214;6.556;2023-05-10T10:57:19;14.30;99.90
51908;DHT22;39320;53.214;6.556;2023-05-10T10:59:47;14.30;99.90
51908;DHT22;39320;53.214;6.556;2023-05-10T11:02:33;14.30;99.90
51908;DHT22;39320;53.214;6.556;2023-05-10T11:04:59;14.30;99.90
51908;DHT22;39320;53.214;6.556;2023-05-10T11:07:26;14.30;99.90
51908;DHT22;39320;53.214;6.556;2023-05-10T11:09:52;14.30;99.90
51908;DHT22;39320;53.214;6.556;2023-05-10T11:12:18;14.30;99.90
51908;DHT22;39320;53.214;6.556;2023-05-10T11:14:50;14.40;99.90
51908;DHT22;39320;53.214;6.556;2023-05-10T11:17:23;14.40;99.90
51908;DHT22;39320;53.214;6.556;2023-05-10T11:20:09;14.40;99.90
51908;DHT22;39320;53.214;6.556;2023-05-10T11:22:51;14.40;99.90
51908;DHT22;39320;53.214;6.556;2023-05-10T11:25:18;14.40;99.90
51908;DHT22;39320;53.214;6.556;2023-05-10T11:27:44;14.40;99.90
51908;DHT22;39320;53.214;6.556;2023-05-10T11:30:11;14.50;99.90
51908;DHT22;39320;53.214;6.556;2023-05-10T11:32:40;14.50;99.90
51908;DHT22;39320;53.214;6.556;2023-05-10T11:35:10;14.60;99.90
51908;DHT22;39320;53.214;6.556;2023-05-10T11:37:37;14.60;99.90
51908;DHT22;39320;53.214;6.556;2023-05-10T11:40:08;14.50;99.90
51908;DHT22;39320;53.214;6.556;2023-05-10T11:42:38;14.50;99.90
51908;DHT22;39320;53.214;6.556;2023-05-10T11:45:04;14.50;99.90
51908;DHT22;39320;53.214;6.556;2023-05-10T11:47:30;14.50;99.90
51908;DHT22;39320;53.214;6.556;2023-05-10T11:49:57;14.50;99.90
51908;DHT22;39320;53.214;6.556;2023-05-10T11:52:23;14.50;99.90
51908;DHT22;39320;53.214;6.556;2023-05-10T11:54:53;14.50;99.90
51908;DHT22;39320;53.214;6.556;2023-05-10T11:57:20;14.50;99.90
51908;DHT22;39320;53.214;6.556;2023-05-10T11:59:47;14.50;99.90
51908;DHT22;39320;53.214;6.556;2023-05-10T12:02:13;14.50;99.90
51908;DHT22;39320;53.214;6.556;2023-05-10T12:04:45;14.50;99.90
51908;DHT22;39320;53.214;6.556;2023-05-10T12:07:12;14.50;99.90
51908;DHT22;39320;53.214;6.556;2023-05-10T12:10:06;14.50;99.90
51908;DHT22;39320;53.214;6.556;2023-05-10T12:12:44;14.50;99.90
51908;DHT22;39320;53.214;6.556;2023-05-10T12:15:21;14.50;99.90
51908;DHT22;39320;53.214;6.556;2023-05-10T12:17:47;14.50;99.90
51908;DHT22;39320;53.214;6.556;2023-05-10T12:20:21;14.50;99.90
51908;DHT22;39320;53.214;6.556;2023-05-10T12:22:53;14.50;99.90
51908;DHT22;39320;53.214;6.556;2023-05-10T12:25:20;14.50;99.90
51908;DHT22;39320;53.214;6.556;2023-05-10T12:27:55;14.50;99.90
51908;DHT22;39320;53.214;6.556;2023-05-10T12:30:22;14.50;99.90
51908;DHT22;39320;53.214;6.556;2023-05-10T12:32:48;14.50;99.90
51908;DHT22;39320;53.214;6.556;2023-05-10T12:35:14;14.50;99.90
51908;DHT22;39320;53.214;6.556;2023-05-10T12:37:42;14.50;99.90
51908;DHT22;39320;53.214;6.556;2023-05-10T12:40:09;14.50;99.90
51908;DHT22;39320;53.214;6.556;2023-05-10T12:42:36;14.50;99.90
51908;DHT22;39320;53.214;6.556;2023-05-10T12:45:04;14.50;99.90
51908;DHT22;39320;53.214;6.556;2023-05-10T12:47:31;14.50;99.90
51908;DHT22;39320;53.214;6.556;2023-05-10T12:49:57;14.50;99.90
51908;DHT22;39320;53.214;6.556;2023-05-10T12:52:23;14.50;99.90
51908;DHT22;39320;53.214;6.556;2023-05-10T12:54:49;14.50;99.90
51908;DHT22;39320;53.214;6.556;2023-05-10T12:57:15;14.60;99.90
51908;DHT22;39320;53.214;6.556;2023-05-10T12:59:41;14.50;99.90
51908;DHT22;39320;53.214;6.556;2023-05-10T13:02:07;14.70;99.90
51908;DHT22;39320;53.214;6.556;2023-05-10T13:04:32;14.60;99.90
51908;DHT22;39320;53.214;6.556;2023-05-10T13:06:58;14.60;99.90
51908;DHT22;39320;53.214;6.556;2023-05-10T13:09:25;14.70;99.90
51908;DHT22;39320;53.214;6.556;2023-05-10T13:11:51;14.70;99.90
51908;DHT22;39320;53.214;6.556;2023-05-10T13:14:19;14.70;99.90
51908;DHT22;39320;53.214;6.556;2023-05-10T13:16:46;14.70;99.90
51908;DHT22;39320;53.214;6.556;2023-05-10T13:19:15;14.70;99.90
51908;DHT22;39320;53.214;6.556;2023-05-10T13:21:42;14.80;99.90
51908;DHT22;39320;53.214;6.556;2023-05-10T13:24:08;14.80;99.90
51908;DHT22;39320;53.214;6.556;2023-05-10T13:26:34;14.70;99.90
51908;DHT22;39320;53.214;6.556;2023-05-10T13:29:00;14.80;99.90
51908;DHT22;39320;53.214;6.556;2023-05-10T13:31:25;14.70;99.90
51908;DHT22;39320;53.214;6.556;2023-05-10T13:33:51;14.80;99.90
51908;DHT22;39320;53.214;6.556;2023-05-10T13:36:17;14.80;99.90
51908;DHT22;39320;53.214;6.556;2023-05-10T13:38:43;14.70;99.90
51908;DHT22;39320;53.214;6.556;2023-05-10T13:41:08;14.80;99.90
51908;DHT22;39320;53.214;6.556;2023-05-10T13:43:34;14.80;99.90
51908;DHT22;39320;53.214;6.556;2023-05-10T13:46:01;14.70;99.90
51908;DHT22;39320;53.214;6.556;2023-05-10T13:48:28;14.70;99.90
51908;DHT22;39320;53.214;6.556;2023-05-10T13:50:54;14.70;99.90
51908;DHT22;39320;53.214;6.556;2023-05-10T13:53:19;14.80;99.90
51908;DHT22;39320;53.214;6.556;2023-05-10T13:55:46;14.70;99.90
51908;DHT22;39320;53.214;6.556;2023-05-10T13:58:11;14.70;99.90
51908;DHT22;39320;53.214;6.556;2023-05-10T14:00:37;14.80;99.90
51908;DHT22;39320;53.214;6.556;2023-05-10T14:03:03;14.70;99.90
51908;DHT22;39320;53.214;6.556;2023-05-10T14:05:30;14.70;99.90
51908;DHT22;39320;53.214;6.556;2023-05-10T14:07:56;14.70;99.90
51908;DHT22;39320;53.214;6.556;2023-05-10T14:10:22;14.70;99.90
51908;DHT22;39320;53.214;6.556;2023-05-10T14:12:49;14.70;99.90
51908;DHT22;39320;53.214;6.556;2023-05-10T14:15:15;14.80;99.90
51908;DHT22;39320;53.214;6.556;2023-05-10T14:17:40;14.80;99.90
51908;DHT22;39320;53.214;6.556;2023-05-10T14:20:07;14.70;99.90
51908;DHT22;39320;53.214;6.556;2023-05-10T14:22:33;14.80;99.90
51908;DHT22;39320;53.214;6.556;2023-05-10T14:24:58;14.80;99.90
51908;DHT22;39320;53.214;6.556;2023-05-10T14:27:24;14.80;99.90
51908;DHT22;39320;53.214;6.556;2023-05-10T14:29:50;14.90;99.90
51908;DHT22;39320;53.214;6.556;2023-05-10T14:32:16;14.90;99.90
51908;DHT22;39320;53.214;6.556;2023-05-10T14:34:42;14.90;99.90
51908;DHT22;39320;53.214;6.556;2023-05-10T14:37:10;14.90;99.90
51908;DHT22;39320;53.214;6.556;2023-05-10T14:39:37;15.00;99.90
51908;DHT22;39320;53.214;6.556;2023-05-10T14:42:03;15.00;99.90
51908;DHT22;39320;53.214;6.556;2023-05-10T14:44:29;15.00;99.90
51908;DHT22;39320;53.214;6.556;2023-05-10T14:46:56;15.00;99.90
51908;DHT22;39320;53.214;6.556;2023-05-10T14:49:22;15.00;99.90
51908;DHT22;39320;53.214;6.556;2023-05-10T14:51:50;15.00;99.90
51908;DHT22;39320;53.214;6.556;2023-05-10T14:54:16;15.10;99.90
51908;DHT22;39320;53.214;6.556;2023-05-10T14:56:45;15.10;99.90
51908;DHT22;39320;53.214;6.556;2023-05-10T14:59:10;15.10;99.90
51908;DHT22;39320;53.214;6.556;2023-05-10T15:01:36;15.00;99.90
51908;DHT22;39320;53.214;6.556;2023-05-10T15:04:04;15.10;99.90
51908;DHT22;39320;53.214;6.556;2023-05-10T15:06:33;15.10;99.90
51908;DHT22;39320;53.214;6.556;2023-05-10T15:09:00;15.10;99.90
51908;DHT22;39320;53.214;6.556;2023-05-10T15:11:27;15.10;99.90
51908;DHT22;39320;53.214;6.556;2023-05-10T15:13:53;15.20;99.90
51908;DHT22;39320;53.214;6.556;2023-05-10T15:16:19;15.20;99.90
51908;DHT22;39320;53.214;6.556;2023-05-10T15:18:45;15.20;99.90
51908;DHT22;39320;53.214;6.556;2023-05-10T15:21:12;15.10;99.90
51908;DHT22;39320;53.214;6.556;2023-05-10T15:23:38;15.10;99.90
51908;DHT22;39320;53.214;6.556;2023-05-10T15:26:03;15.20;99.90
51908;DHT22;39320;53.214;6.556;2023-05-10T15:28:29;15.20;99.90
51908;DHT22;39320;53.214;6.556;2023-05-10T15:30:55;15.20;99.90
51908;DHT22;39320;53.214;6.556;2023-05-10T15:33:22;15.20;99.90
51908;DHT22;39320;53.214;6.556;2023-05-10T15:35:48;15.20;99.90
51908;DHT22;39320;53.214;6.556;2023-05-10T15:38:14;15.10;99.90
51908;DHT22;39320;53.214;6.556;2023-05-10T15:40:40;15.10;99.90
51908;DHT22;39320;53.214;6.556;2023-05-10T15:43:06;15.20;99.90
51908;DHT22;39320;53.214;6.556;2023-05-10T15:45:32;15.20;99.90
51908;DHT22;39320;53.214;6.556;2023-05-10T15:47:58;15.10;99.90
51908;DHT22;39320;53.214;6.556;2023-05-10T15:50:24;15.10;99.90
51908;DHT22;39320;53.214;6.556;2023-05-10T15:52:50;15.00;99.90
51908;DHT22;39320;53.214;6.556;2023-05-10T15:55:16;15.00;99.90
51908;DHT22;39320;53.214;6.556;2023-05-10T15:57:43;15.00;99.90
51908;DHT22;39320;53.214;6.556;2023-05-10T16:00:10;15.00;99.90
51908;DHT22;39320;53.214;6.556;2023-05-10T16:02:36;14.90;99.90
51908;DHT22;39320;53.214;6.556;2023-05-10T16:05:03;14.90;99.90
51908;DHT22;39320;53.214;6.556;2023-05-10T16:07:29;14.90;99.90
51908;DHT22;39320;53.214;6.556;2023-05-10T16:09:54;14.90;99.90
51908;DHT22;39320;53.214;6.556;2023-05-10T16:12:20;14.90;99.90